Time;durP1;ratioP1;P1;durP2;ratioP2;P2;SDS_P1;SDS_P2;PMS_P1;PMS_P2;Temp;Humidity;BMP_temperature;BMP_pressure;BME280_temperature;BME280_humidity;BME280_pressure;Samples;Min_cycle;Max_cycle;Signal;HPM_P1;HPM_P2
2022/06/20 00:01:31;;;;;;;7.93;4.93;;;20.50;56.00;;;;;;4182463;28;20226;-70
2022/06/20 00:03:38;;;;;;;10.13;6.60;;;20.50;56.40;;;;;;4182388;28;20176;-71
2022/06/20 00:05:38;;;;;;;11.50;5.60;;;20.40;56.40;;;;;;4181078;28;20192;-71
2022/06/20 00:07:39;;;;;;;6.87;6.13;;;20.40;56.60;;;;;;4182062;28;20655;-70
2022/06/20 00:09:40;;;;;;;7.20;5.47;;;20.30;58.10;;;;;;4182171;28;20176;-70
2022/06/20 00:11:43;;;;;;;10.67;5.80;;;20.20;59.00;;;;;;4181945;28;20207;-71
2022/06/20 00:13:48;;;;;;;12.57;5.63;;;20.10;59.30;;;;;;4182383;28;20172;-70
2022/06/20 00:15:51;;;;;;;11.80;5.70;;;20.10;58.90;;;;;;4181483;28;20215;-69
2022/06/20 00:17:54;;;;;;;9.47;5.93;;;20.10;59.00;;;;;;4181906;28;20678;-70
2022/06/20 00:19:55;;;;;;;10.27;5.73;;;20.10;59.20;;;;;;4181618;28;20176;-70
2022/06/20 00:21:56;;;;;;;12.43;6.30;;;20.10;57.50;;;;;;4182019;28;20181;-70
2022/06/20 00:23:56;;;;;;;9.47;5.50;;;20.20;58.00;;;;;;4181953;28;20908;-70
2022/06/20 00:25:57;;;;;;;8.63;5.17;;;20.30;55.90;;;;;;4181515;28;20204;-70
2022/06/20 00:27:57;;;;;;;7.67;5.07;;;20.40;55.30;;;;;;4182133;28;20272;-70
2022/06/20 00:29:58;;;;;;;14.00;5.17;;;20.50;53.70;;;;;;4181349;28;20173;-70
2022/06/20 00:32:00;;;;;;;11.23;5.43;;;20.70;52.50;;;;;;4181678;28;20176;-71
2022/06/20 00:34:00;;;;;;;7.13;4.43;;;20.80;52.00;;;;;;4181582;28;20179;-69
2022/06/20 00:36:01;;;;;;;7.47;4.83;;;20.80;52.10;;;;;;4180413;28;20208;-70
2022/06/20 00:38:04;;;;;;;9.43;4.73;;;20.90;51.30;;;;;;4181224;28;20264;-70
2022/06/20 00:40:29;;;;;;;10.50;4.70;;;20.90;51.20;;;;;;4180763;28;20160;-70
2022/06/20 00:42:29;;;;;;;9.63;4.37;;;20.90;50.60;;;;;;4181061;28;20172;-70
2022/06/20 00:44:42;;;;;;;15.03;4.40;;;21.00;50.20;;;;;;4180564;28;20197;-70
2022/06/20 00:46:49;;;;;;;10.73;4.70;;;21.10;50.00;;;;;;4180526;28;20768;-71
2022/06/20 00:49:11;;;;;;;13.13;4.90;;;21.10;50.50;;;;;;4181297;28;20179;-70
2022/06/20 00:51:30;;;;;;;11.17;4.10;;;21.00;50.50;;;;;;4177515;28;20176;-70
2022/06/20 00:53:42;;;;;;;6.90;4.03;;;21.00;49.70;;;;;;4164280;28;20203;-70
2022/06/20 00:55:51;;;;;;;11.03;4.67;;;21.20;49.10;;;;;;4163426;28;20200;-70
2022/06/20 00:58:02;;;;;;;13.10;4.53;;;21.20;48.90;;;;;;4164671;28;20184;-70
2022/06/20 01:00:08;;;;;;;14.33;4.33;;;21.20;48.80;;;;;;4165154;28;20648;-70
2022/06/20 01:02:12;;;;;;;12.83;4.17;;;21.30;48.30;;;;;;4164489;28;20173;-70
2022/06/20 01:04:23;;;;;;;10.23;4.30;;;21.30;47.90;;;;;;4163477;28;20531;-70
2022/06/20 01:06:30;;;;;;;15.37;4.23;;;21.50;46.90;;;;;;4163548;28;20204;-70
2022/06/20 01:08:40;;;;;;;9.57;4.80;;;21.60;46.50;;;;;;4165037;28;20184;-70
2022/06/20 01:11:00;;;;;;;11.77;4.67;;;21.80;46.00;;;;;;4164754;28;20193;-71
2022/06/20 01:13:06;;;;;;;9.63;4.43;;;21.90;45.60;;;;;;4164814;28;20263;-70
2022/06/20 01:15:22;;;;;;;12.43;4.47;;;21.90;45.60;;;;;;4164574;28;20185;-70
2022/06/20 01:17:35;;;;;;;9.93;4.90;;;21.90;45.80;;;;;;4163840;28;20209;-70
2022/06/20 01:19:42;;;;;;;8.60;4.47;;;21.90;45.80;;;;;;4163892;28;20193;-70
2022/06/20 01:21:42;;;;;;;12.10;5.03;;;21.90;45.80;;;;;;4164276;28;20251;-70
2022/06/20 01:24:00;;;;;;;13.87;4.57;;;21.80;46.30;;;;;;4165057;28;20173;-70
2022/06/20 01:26:18;;;;;;;7.30;4.70;;;21.70;46.90;;;;;;4164028;28;20196;-71
2022/06/20 01:28:23;;;;;;;9.63;4.80;;;21.70;46.90;;;;;;4164103;28;20255;-71
2022/06/20 01:30:29;;;;;;;8.20;4.60;;;21.70;47.20;;;;;;4165160;28;20161;-71
2022/06/20 01:32:31;;;;;;;9.57;4.33;;;21.70;47.20;;;;;;4164778;28;20185;-74
2022/06/20 01:34:32;;;;;;;10.27;4.73;;;21.60;47.70;;;;;;4175492;28;20728;-70
2022/06/20 01:39:00;;;;;;;10.37;4.70;;;21.60;47.70;;;;;;4181287;28;20310;-71
2022/06/20 01:43:22;;;;;;;11.30;4.70;;;21.50;48.00;;;;;;4180614;28;20182;-72
2022/06/20 01:47:42;;;;;;;8.97;4.80;;;21.50;47.70;;;;;;4181169;28;20207;-71
2022/06/20 01:49:47;;;;;;;11.37;4.67;;;21.60;47.80;;;;;;4180602;28;20172;-71
2022/06/20 01:52:24;;;;;;;7.70;4.57;;;21.60;47.60;;;;;;4181244;28;20176;-70
2022/06/20 01:54:31;;;;;;;12.47;4.60;;;21.70;47.30;;;;;;4162588;28;20193;-70
2022/06/20 01:56:31;;;;;;;10.93;4.90;;;21.70;47.10;;;;;;4173158;28;20286;-71
2022/06/20 01:58:37;;;;;;;10.27;4.50;;;21.80;46.90;;;;;;4181099;28;20596;-70
2022/06/20 02:00:38;;;;;;;10.50;4.50;;;21.80;46.60;;;;;;4181215;28;20648;-70
2022/06/20 02:02:44;;;;;;;13.07;4.70;;;21.80;47.00;;;;;;4184132;28;20176;-71
2022/06/20 02:04:45;;;;;;;8.67;4.30;;;21.70;47.10;;;;;;4183087;28;20183;-70
2022/06/20 02:06:47;;;;;;;10.97;4.90;;;21.90;46.90;;;;;;4183106;28;20208;-71
2022/06/20 02:08:54;;;;;;;11.20;5.10;;;22.00;46.40;;;;;;4177561;28;20238;-70
2022/06/20 02:11:09;;;;;;;8.50;4.83;;;22.10;46.30;;;;;;4183740;28;20176;-71
2022/06/20 02:13:13;;;;;;;9.27;5.00;;;22.10;46.60;;;;;;4184199;28;20275;-70
2022/06/20 02:15:20;;;;;;;9.97;7.47;;;22.10;46.40;;;;;;4182753;28;20165;-70
2022/06/20 02:17:35;;;;;;;9.93;4.70;;;22.20;46.40;;;;;;4184282;28;20218;-70
2022/06/20 02:19:44;;;;;;;13.07;6.30;;;22.30;47.50;;;;;;4183738;28;20196;-70
2022/06/20 02:21:46;;;;;;;12.93;7.23;;;22.50;46.10;;;;;;4183911;28;20202;-71
2022/06/20 02:23:51;;;;;;;12.03;5.57;;;22.60;46.00;;;;;;4182579;28;20582;-71
2022/06/20 02:25:54;;;;;;;13.50;12.23;;;22.70;45.90;;;;;;4182958;28;20302;-71
2022/06/20 02:28:04;;;;;;;27.47;25.37;;;22.90;45.00;;;;;;4183025;28;20341;-71
2022/06/20 02:30:08;;;;;;;25.67;23.57;;;23.10;44.50;;;;;;4183905;28;20204;-71
2022/06/20 02:32:22;;;;;;;10.10;9.20;;;23.30;43.80;;;;;;4183774;28;20194;-70
2022/06/20 02:34:26;;;;;;;16.03;14.63;;;23.40;43.30;;;;;;4183899;28;20172;-71
2022/06/20 02:36:27;;;;;;;41.67;38.90;;;23.50;43.20;;;;;;4182598;28;20791;-70
2022/06/20 02:38:28;;;;;;;29.00;26.77;;;23.50;42.70;;;;;;4183590;28;20172;-71
2022/06/20 02:40:30;;;;;;;50.93;47.87;;;23.50;42.70;;;;;;4183431;28;20180;-71
2022/06/20 02:42:35;;;;;;;37.33;34.33;;;23.50;42.30;;;;;;4182957;28;20177;-71
2022/06/20 02:44:37;;;;;;;26.10;24.00;;;23.50;42.00;;;;;;4182512;28;20184;-71
2022/06/20 02:46:39;;;;;;;51.37;47.80;;;23.60;41.60;;;;;;4180809;28;20297;-71
2022/06/20 02:48:43;;;;;;;24.07;22.07;;;23.60;41.60;;;;;;4171347;28;20272;-70
2022/06/20 02:50:51;;;;;;;21.60;19.67;;;23.50;41.50;;;;;;4167092;28;20177;-70
2022/06/20 02:53:09;;;;;;;17.53;15.37;;;23.50;41.00;;;;;;4166968;28;20189;-70
2022/06/20 02:55:12;;;;;;;52.93;49.23;;;23.50;40.00;;;;;;4165554;28;20169;-71
2022/06/20 02:57:18;;;;;;;69.53;64.80;;;23.60;39.30;;;;;;4164506;28;20583;-70
2022/06/20 02:59:23;;;;;;;106.97;100.53;;;23.60;38.60;;;;;;4164879;28;20611;-71
2022/06/20 03:01:35;;;;;;;33.97;31.53;;;23.50;37.90;;;;;;4164904;28;20189;-71
2022/06/20 03:03:39;;;;;;;151.07;142.47;;;23.40;38.40;;;;;;4164658;28;20533;-70
2022/06/20 03:05:40;;;;;;;92.67;87.07;;;23.40;37.80;;;;;;4163866;28;20523;-70
2022/06/20 03:07:41;;;;;;;50.90;47.70;;;23.40;37.60;;;;;;4164373;28;20560;-71
2022/06/20 03:09:45;;;;;;;42.80;40.03;;;23.50;37.70;;;;;;4164298;28;20260;-70
2022/06/20 03:11:46;;;;;;;72.90;68.37;;;23.40;37.70;;;;;;4164387;28;20665;-71
2022/06/20 03:13:47;;;;;;;206.97;194.37;;;23.50;37.90;;;;;;4164348;28;20234;-70
2022/06/20 03:15:50;;;;;;;182.37;171.97;;;23.40;38.10;;;;;;4163529;28;20581;-70
2022/06/20 03:17:53;;;;;;;192.93;182.17;;;23.30;38.40;;;;;;4163078;28;20282;-70
2022/06/20 03:19:57;;;;;;;154.97;145.60;;;23.30;38.40;;;;;;4164015;28;20181;-70
2022/06/20 03:22:02;;;;;;;75.63;70.97;;;23.30;38.60;;;;;;4166053;28;20181;-71
2022/06/20 03:24:04;;;;;;;192.97;181.83;;;23.20;38.90;;;;;;4166070;28;20173;-71
2022/06/20 03:26:11;;;;;;;21.07;18.10;;;23.20;38.80;;;;;;4165599;28;20200;-70
2022/06/20 03:28:15;;;;;;;86.00;80.77;;;23.20;39.00;;;;;;4166197;28;20187;-71
2022/06/20 03:30:21;;;;;;;34.97;32.67;;;23.20;39.10;;;;;;4166226;28;20188;-70
2022/06/20 03:32:24;;;;;;;71.77;66.97;;;23.10;39.40;;;;;;4165755;28;20181;-71
2022/06/20 03:34:24;;;;;;;71.00;66.40;;;23.10;39.40;;;;;;4165626;28;20203;-71
2022/06/20 03:36:27;;;;;;;80.80;75.50;;;23.10;39.70;;;;;;4164923;28;20244;-71
2022/06/20 03:38:28;;;;;;;66.80;62.50;;;22.80;43.60;;;;;;4165686;28;20212;-71
2022/06/20 03:40:30;;;;;;;121.30;113.87;;;22.30;44.70;;;;;;4165356;28;20177;-71
2022/06/20 03:42:31;;;;;;;39.37;36.70;;;21.90;46.30;;;;;;4182238;28;20192;-71
2022/06/20 03:44:39;;;;;;;19.93;18.33;;;21.90;46.70;;;;;;4182282;28;20260;-71
2022/06/20 03:46:43;;;;;;;20.67;18.93;;;21.80;47.70;;;;;;4181621;28;20203;-71
2022/06/20 03:48:56;;;;;;;66.23;61.87;;;21.80;47.70;;;;;;4182092;28;20180;-70
2022/06/20 03:51:02;;;;;;;67.37;63.07;;;21.70;48.20;;;;;;4182131;28;20625;-71
2022/06/20 03:53:29;;;;;;;8.57;5.90;;;21.50;48.90;;;;;;4181834;28;20264;-71
2022/06/20 03:55:31;;;;;;;80.07;75.57;;;21.50;48.70;;;;;;4180230;28;20232;-71
2022/06/20 03:57:46;;;;;;;8.80;8.03;;;21.50;48.10;;;;;;4182309;28;20287;-71
2022/06/20 04:00:04;;;;;;;17.47;16.03;;;21.50;48.00;;;;;;4180950;28;20176;-71
2022/06/20 04:02:20;;;;;;;104.90;98.93;;;21.60;47.60;;;;;;4181895;28;20283;-71
2022/06/20 04:04:33;;;;;;;26.40;24.57;;;21.60;47.20;;;;;;4181915;28;20678;-71
2022/06/20 04:06:55;;;;;;;26.07;24.37;;;21.60;46.90;;;;;;4181684;28;20200;-71
2022/06/20 04:12:11;;;;;;;49.13;46.07;;;21.70;46.90;;;;;;4182080;28;20242;-71
2022/06/20 04:14:31;;;;;;;95.67;90.17;;;21.70;46.30;;;;;;4179427;28;20194;-70
2022/06/20 04:16:39;;;;;;;26.90;25.13;;;21.80;45.60;;;;;;4181434;28;20275;-70
2022/06/20 04:18:56;;;;;;;35.53;33.23;;;21.90;45.60;;;;;;4173070;28;20216;-70
2022/06/20 04:21:09;;;;;;;65.43;61.20;;;21.90;45.20;;;;;;4181119;28;20595;-71
2022/06/20 04:23:21;;;;;;;95.37;89.93;;;21.90;44.60;;;;;;4181101;28;20267;-71
2022/06/20 04:25:34;;;;;;;8.63;7.80;;;21.90;44.70;;;;;;4179043;28;20653;-71
2022/06/20 04:27:43;;;;;;;22.73;20.53;;;22.00;44.60;;;;;;4181847;28;20172;-71
2022/06/20 04:29:48;;;;;;;35.93;33.63;;;21.90;44.90;;;;;;4181546;28;20186;-71
2022/06/20 04:32:04;;;;;;;16.97;15.70;;;21.90;45.00;;;;;;4181468;28;20546;-71
2022/06/20 04:34:21;;;;;;;20.93;19.23;;;21.90;44.90;;;;;;4181358;28;20191;-71
2022/06/20 04:36:30;;;;;;;62.97;59.13;;;21.90;45.00;;;;;;4180531;28;20226;-71
2022/06/20 04:38:37;;;;;;;64.63;60.27;;;21.90;45.50;;;;;;4181111;28;20246;-71
2022/06/20 04:40:47;;;;;;;22.20;20.27;;;21.80;45.30;;;;;;4181097;28;20221;-70
2022/06/20 04:43:11;;;;;;;59.07;55.60;;;21.90;45.30;;;;;;4179691;28;20172;-70
2022/06/20 04:45:42;;;;;;;133.87;126.40;;;21.80;45.40;;;;;;4160590;28;20323;-70
2022/06/20 04:47:54;;;;;;;8.17;6.30;;;21.70;45.90;;;;;;4164759;28;20238;-70
2022/06/20 04:49:55;;;;;;;65.50;61.67;;;21.70;46.30;;;;;;4164657;28;20181;-70
2022/06/20 04:51:55;;;;;;;25.77;23.93;;;21.60;46.30;;;;;;4164495;28;20189;-70
2022/06/20 04:53:56;;;;;;;82.93;78.07;;;21.60;46.90;;;;;;4164417;28;20264;-71
2022/06/20 04:55:59;;;;;;;25.30;23.37;;;21.50;47.20;;;;;;4164240;28;20606;-71
2022/06/20 04:58:03;;;;;;;9.33;4.70;;;21.50;47.30;;;;;;4164671;28;20272;-71
2022/06/20 05:00:10;;;;;;;48.23;45.13;;;21.50;47.50;;;;;;4163597;28;20185;-70
2022/06/20 05:02:19;;;;;;;24.67;22.70;;;21.50;47.40;;;;;;4165177;28;20181;-71
2022/06/20 05:04:31;;;;;;;21.43;20.10;;;21.60;47.40;;;;;;4165231;28;20208;-70
2022/06/20 05:06:34;;;;;;;69.30;65.33;;;21.60;47.40;;;;;;4164597;28;20200;-70
2022/06/20 05:08:39;;;;;;;28.50;26.50;;;21.60;47.30;;;;;;4165265;28;20720;-70
2022/06/20 05:10:50;;;;;;;7.77;6.80;;;21.60;47.60;;;;;;4165314;28;20271;-71
2022/06/20 05:13:08;;;;;;;170.10;160.73;;;21.60;47.40;;;;;;4165054;28;20252;-70
2022/06/20 05:15:25;;;;;;;73.93;70.03;;;21.60;47.10;;;;;;4164810;28;20724;-70
2022/06/20 05:17:30;;;;;;;45.00;41.97;;;21.50;47.30;;;;;;4164862;28;20219;-70
2022/06/20 05:19:39;;;;;;;41.50;38.93;;;21.50;47.50;;;;;;4163702;28;20694;-70
2022/06/20 05:21:44;;;;;;;43.90;40.93;;;21.50;47.60;;;;;;4164702;28;20192;-71
2022/06/20 05:23:54;;;;;;;42.47;39.90;;;21.40;47.60;;;;;;4164957;28;20216;-70
2022/06/20 05:25:57;;;;;;;46.63;43.67;;;21.50;47.30;;;;;;4164481;28;20224;-70
2022/06/20 05:28:04;;;;;;;112.13;105.53;;;21.60;46.90;;;;;;4164194;28;20184;-70
2022/06/20 05:30:07;;;;;;;10.23;8.63;;;21.60;46.40;;;;;;4162106;28;20185;-71
2022/06/20 05:32:13;;;;;;;12.47;11.37;;;21.60;46.90;;;;;;4162212;28;20651;-71
2022/06/20 05:34:13;;;;;;;9.80;8.20;;;21.60;46.50;;;;;;4162088;28;20644;-71
2022/06/20 05:36:28;;;;;;;49.77;46.80;;;21.70;46.10;;;;;;4164156;28;20271;-71
2022/06/20 05:38:38;;;;;;;9.13;7.40;;;21.80;45.70;;;;;;4165497;28;20173;-71
2022/06/20 05:40:54;;;;;;;32.60;30.40;;;21.70;46.30;;;;;;4165322;28;20176;-72
2022/06/20 05:42:55;;;;;;;48.60;45.53;;;21.80;46.00;;;;;;4180776;28;20188;-71
2022/06/20 05:44:56;;;;;;;55.50;52.03;;;21.80;45.60;;;;;;4181862;28;20226;-71
2022/06/20 05:47:02;;;;;;;46.30;43.53;;;21.90;45.70;;;;;;4181215;28;20196;-71
2022/06/20 05:49:07;;;;;;;46.80;43.73;;;21.90;45.80;;;;;;4181791;28;20176;-71
2022/06/20 05:51:09;;;;;;;47.57;44.60;;;21.80;46.20;;;;;;4181816;28;20253;-71
2022/06/20 05:53:16;;;;;;;11.33;8.80;;;21.90;45.70;;;;;;4181737;28;20188;-71
2022/06/20 05:55:22;;;;;;;118.63;112.07;;;22.00;45.50;;;;;;4181513;28;20556;-71
2022/06/20 05:57:28;;;;;;;20.47;19.03;;;22.00;45.30;;;;;;4181543;28;20231;-71
2022/06/20 05:59:28;;;;;;;33.87;31.90;;;21.90;45.80;;;;;;4181817;28;20605;-71
2022/06/20 06:01:33;;;;;;;42.57;40.03;;;22.00;45.90;;;;;;4181797;28;20183;-71
2022/06/20 06:03:46;;;;;;;4.73;4.10;;;22.00;45.40;;;;;;4181862;28;20184;-71
2022/06/20 06:05:52;;;;;;;99.07;93.43;;;22.10;45.40;;;;;;4180981;28;20191;-71
2022/06/20 06:07:57;;;;;;;53.00;49.93;;;22.10;44.70;;;;;;4181501;28;20172;-71
2022/06/20 06:10:21;;;;;;;28.90;26.87;;;22.10;45.40;;;;;;4181590;28;20256;-71
2022/06/20 06:12:37;;;;;;;20.77;19.20;;;22.00;45.10;;;;;;4178346;28;20271;-71
2022/06/20 06:14:48;;;;;;;74.50;70.33;;;22.00;44.80;;;;;;4181567;28;20250;-71
2022/06/20 06:17:00;;;;;;;79.77;74.97;;;21.80;45.10;;;;;;4180739;28;20578;-70
2022/06/20 06:19:24;;;;;;;34.93;32.87;;;21.80;45.30;;;;;;4181647;28;20318;-71
2022/06/20 06:21:26;;;;;;;36.60;34.40;;;21.90;45.20;;;;;;4181394;28;20197;-71
2022/06/20 06:23:27;;;;;;;6.63;5.20;;;22.00;45.20;;;;;;4178627;28;20191;-71
2022/06/20 06:25:37;;;;;;;37.47;35.23;;;21.90;45.80;;;;;;4171952;28;20204;-71
2022/06/20 06:27:37;;;;;;;31.63;29.40;;;22.00;45.10;;;;;;4172557;28;20172;-71
2022/06/20 06:29:50;;;;;;;123.37;116.70;;;22.10;45.10;;;;;;4173131;28;20193;-71
2022/06/20 06:31:57;;;;;;;32.17;30.07;;;22.10;44.60;;;;;;4167620;28;20193;-71
2022/06/20 06:34:15;;;;;;;5.13;4.73;;;22.20;45.20;;;;;;4168019;28;20216;-71
2022/06/20 06:36:23;;;;;;;14.43;13.30;;;22.30;45.00;;;;;;4180440;28;20204;-71
2022/06/20 06:38:36;;;;;;;67.43;63.40;;;22.40;44.50;;;;;;4181035;28;20200;-71
2022/06/20 06:40:46;;;;;;;7.53;6.83;;;22.40;44.00;;;;;;4180967;28;20191;-71
2022/06/20 06:42:47;;;;;;;66.27;62.37;;;22.30;44.10;;;;;;4181119;28;20179;-71
2022/06/20 06:44:50;;;;;;;37.30;34.47;;;22.40;43.80;;;;;;4180948;28;20180;-71
2022/06/20 06:46:53;;;;;;;59.53;56.10;;;22.50;43.90;;;;;;4179610;28;20242;-71
2022/06/20 06:49:05;;;;;;;25.17;23.43;;;22.60;43.40;;;;;;4180691;28;20728;-71
2022/06/20 06:51:09;;;;;;;30.10;28.13;;;22.60;42.80;;;;;;4180924;28;20184;-71
2022/06/20 06:53:32;;;;;;;49.33;46.40;;;22.70;43.10;;;;;;4180626;28;20193;-71
2022/06/20 06:55:38;;;;;;;24.33;22.70;;;22.80;42.20;;;;;;4180245;28;20203;-71
2022/06/20 06:57:59;;;;;;;156.07;147.57;;;22.80;41.70;;;;;;4180892;28;20291;-71
2022/06/20 07:00:02;;;;;;;58.07;54.73;;;22.80;42.40;;;;;;4180731;28;20187;-71
2022/06/20 07:02:09;;;;;;;85.30;80.20;;;22.90;42.30;;;;;;4180639;28;20262;-71
2022/06/20 07:04:24;;;;;;;129.60;122.20;;;22.90;42.30;;;;;;4180568;28;20180;-71
2022/06/20 07:06:35;;;;;;;19.03;17.70;;;23.10;42.00;;;;;;4180117;28;20200;-72
2022/06/20 07:08:45;;;;;;;91.93;86.73;;;23.10;41.20;;;;;;4180577;28;20234;-71
2022/06/20 07:10:55;;;;;;;89.40;84.30;;;23.30;41.40;;;;;;4180371;28;20192;-71
2022/06/20 07:13:04;;;;;;;9.83;9.03;;;23.30;40.30;;;;;;4180524;28;20215;-71
2022/06/20 07:15:11;;;;;;;186.53;176.13;;;23.30;40.40;;;;;;4180166;28;20184;-71
2022/06/20 07:17:29;;;;;;;20.03;18.77;;;23.30;39.60;;;;;;4180082;28;20299;-69
2022/06/20 07:19:29;;;;;;;56.73;53.40;;;23.40;40.20;;;;;;4180512;28;20177;-69
2022/06/20 07:21:32;;;;;;;31.17;28.93;;;23.40;40.00;;;;;;4180312;28;20287;-69
2022/06/20 07:23:34;;;;;;;192.00;181.43;;;23.50;39.50;;;;;;4180466;28;20195;-69
2022/06/20 07:25:39;;;;;;;101.07;95.20;;;23.50;39.60;;;;;;4179609;28;20567;-70
2022/06/20 07:27:46;;;;;;;103.00;97.40;;;23.60;39.70;;;;;;4180311;28;20188;-69
2022/06/20 07:30:02;;;;;;;148.87;140.73;;;23.70;39.00;;;;;;4180273;28;20168;-68
2022/06/20 07:32:13;;;;;;;139.40;131.73;;;23.60;39.50;;;;;;4180195;28;20191;-69
2022/06/20 07:34:24;;;;;;;32.77;30.73;;;23.60;39.10;;;;;;4180133;28;20271;-72
2022/06/20 07:36:29;;;;;;;137.80;129.80;;;23.60;39.20;;;;;;4178612;28;20238;-71
2022/06/20 07:38:35;;;;;;;235.47;221.73;;;23.70;39.00;;;;;;4180168;28;20242;-72
2022/06/20 07:40:52;;;;;;;4.53;4.20;;;23.50;38.60;;;;;;4180136;28;20192;-72
2022/06/20 07:43:00;;;;;;;102.20;96.50;;;23.60;40.60;;;;;;4180137;28;20173;-72
2022/06/20 07:45:31;;;;;;;208.00;195.80;;;23.70;38.70;;;;;;4179692;28;20183;-72
2022/06/20 07:47:54;;;;;;;125.77;118.33;;;23.60;38.60;;;;;;4178459;28;20275;-72
2022/06/20 07:49:55;;;;;;;29.93;27.93;;;23.60;39.40;;;;;;4179807;28;20183;-72
2022/06/20 07:51:59;;;;;;;104.33;98.37;;;23.90;39.10;;;;;;4179810;28;20176;-72
2022/06/20 07:54:16;;;;;;;17.60;16.23;;;24.00;38.70;;;;;;4179903;28;20215;-72
2022/06/20 07:56:23;;;;;;;29.10;27.37;;;24.10;39.00;;;;;;4178947;28;20232;-72
2022/06/20 07:58:29;;;;;;;79.57;75.00;;;24.20;39.20;;;;;;4179096;28;20211;-72
2022/06/20 08:00:41;;;;;;;102.57;96.77;;;24.00;38.80;;;;;;4179648;28;20176;-71
2022/06/20 08:02:48;;;;;;;142.10;133.90;;;24.10;39.10;;;;;;4179645;28;20179;-71
2022/06/20 08:04:57;;;;;;;96.93;91.03;;;24.00;39.50;;;;;;4179714;28;20648;-72
2022/06/20 08:07:05;;;;;;;82.73;78.13;;;24.20;39.80;;;;;;4179078;28;20235;-72
2022/06/20 08:09:27;;;;;;;106.70;100.40;;;24.00;40.10;;;;;;4178647;28;20655;-71
2022/06/20 08:11:50;;;;;;;149.23;140.93;;;24.10;39.90;;;;;;4179770;28;20264;-71
2022/06/20 08:13:53;;;;;;;97.53;92.03;;;24.20;39.50;;;;;;4179465;28;20930;-71
2022/06/20 08:16:09;;;;;;;32.10;29.87;;;24.20;39.60;;;;;;4179201;28;20204;-72
2022/06/20 08:18:09;;;;;;;46.20;43.27;;;24.30;40.20;;;;;;4181676;28;20187;-73
2022/06/20 08:20:11;;;;;;;8.20;7.50;;;24.20;39.50;;;;;;4181504;28;20192;-72
2022/06/20 08:22:23;;;;;;;8.27;7.53;;;24.20;40.30;;;;;;4181756;28;20173;-72
2022/06/20 08:24:46;;;;;;;87.67;82.80;;;24.30;39.90;;;;;;4181629;28;20187;-71
2022/06/20 08:26:57;;;;;;;34.27;32.23;;;24.40;39.60;;;;;;4181195;28;20215;-72
2022/06/20 08:29:01;;;;;;;102.60;96.87;;;24.20;40.00;;;;;;4181598;28;20184;-71
2022/06/20 08:31:21;;;;;;;15.70;14.60;;;24.20;39.70;;;;;;4181762;28;20267;-72
2022/06/20 08:33:45;;;;;;;48.53;45.37;;;24.10;40.10;;;;;;4182135;28;20180;-72
2022/06/20 08:35:49;;;;;;;8.07;7.33;;;24.40;40.60;;;;;;4181437;28;20204;-72
2022/06/20 08:38:24;;;;;;;78.53;73.60;;;24.30;40.60;;;;;;4182085;28;20215;-72
2022/06/20 08:40:31;;;;;;;27.40;25.53;;;24.30;40.60;;;;;;4178989;28;20629;-72
2022/06/20 08:42:52;;;;;;;45.03;42.43;;;24.30;41.40;;;;;;4165916;28;20219;-72
2022/06/20 08:45:22;;;;;;;18.50;17.20;;;24.30;41.10;;;;;;4164236;28;20252;-72
2022/06/20 08:47:57;;;;;;;88.80;83.50;;;24.20;41.40;;;;;;4165555;28;20177;-71
2022/06/20 08:50:25;;;;;;;33.07;30.63;;;24.20;41.40;;;;;;4165453;28;20188;-71
2022/06/20 08:52:54;;;;;;;20.33;18.67;;;24.30;41.30;;;;;;4165421;28;20184;-71
2022/06/20 08:55:15;;;;;;;44.70;41.93;;;24.50;41.60;;;;;;4165444;28;20188;-72
2022/06/20 08:57:53;;;;;;;26.13;24.07;;;24.40;41.60;;;;;;4164781;28;20735;-72
2022/06/20 09:00:09;;;;;;;163.87;152.90;;;24.60;41.70;;;;;;4165448;28;20181;-71
2022/06/20 09:02:29;;;;;;;57.43;54.17;;;24.30;42.10;;;;;;4165006;28;20207;-71
2022/06/20 09:04:51;;;;;;;126.87;119.87;;;24.50;42.10;;;;;;4165352;28;20176;-71
2022/06/20 09:07:17;;;;;;;75.50;70.90;;;24.80;41.60;;;;;;4164580;28;20201;-71
2022/06/20 09:09:45;;;;;;;46.10;43.30;;;24.70;41.10;;;;;;4165518;28;20196;-71
2022/06/20 09:12:05;;;;;;;13.13;12.03;;;24.40;41.20;;;;;;4165355;28;20185;-71
2022/06/20 09:14:43;;;;;;;23.70;22.00;;;24.50;41.10;;;;;;4165353;28;20687;-71
2022/06/20 09:17:07;;;;;;;51.33;48.23;;;24.90;41.70;;;;;;4164611;28;20216;-71
2022/06/20 09:19:38;;;;;;;107.53;101.13;;;24.70;40.60;;;;;;4165087;28;20184;-71
2022/06/20 09:22:06;;;;;;;108.23;102.13;;;24.90;41.20;;;;;;4164949;28;20209;-72
2022/06/20 09:24:23;;;;;;;28.90;27.13;;;24.90;40.40;;;;;;4165033;28;20177;-71
2022/06/20 09:26:46;;;;;;;51.73;48.53;;;24.90;40.50;;;;;;4164409;28;20354;-70
2022/06/20 09:29:22;;;;;;;65.37;61.40;;;25.00;40.10;;;;;;4164971;28;20173;-70
2022/06/20 09:31:31;;;;;;;68.97;65.07;;;24.80;40.10;;;;;;4168258;28;20187;-71
2022/06/20 09:34:02;;;;;;;122.73;115.83;;;24.90;40.60;;;;;;4165025;28;20187;-71
2022/06/20 09:36:28;;;;;;;82.57;77.63;;;25.00;39.50;;;;;;4164151;28;20593;-71
2022/06/20 09:39:07;;;;;;;10.30;9.50;;;25.40;39.50;;;;;;4154589;28;20203;-70
2022/06/20 09:41:07;;;;;;;6.80;5.10;;;25.30;39.10;;;;;;4130281;28;20189;-71
2022/06/20 09:43:13;;;;;;;53.43;50.07;;;25.50;40.10;;;;;;4142149;28;20672;-71
2022/06/20 09:45:22;;;;;;;245.87;232.13;;;25.60;37.70;;;;;;4164494;28;20183;-71
2022/06/20 09:47:32;;;;;;;204.17;192.53;;;25.50;37.70;;;;;;4165223;28;20181;-70
2022/06/20 09:49:48;;;;;;;63.50;59.90;;;25.60;36.70;;;;;;4165144;28;20526;-71
2022/06/20 09:51:56;;;;;;;8.03;5.83;;;25.70;37.00;;;;;;4165038;28;20177;-71
2022/06/20 09:54:08;;;;;;;20.40;18.83;;;25.70;38.20;;;;;;4163672;28;20176;-70
2022/06/20 09:56:35;;;;;;;13.50;12.47;;;25.70;36.40;;;;;;4164140;28;20236;-71
2022/06/20 09:58:55;;;;;;;40.83;38.03;;;26.00;36.20;;;;;;4156213;28;20264;-71
2022/06/20 10:01:03;;;;;;;39.03;36.27;;;26.00;36.90;;;;;;4163586;28;20251;-71
2022/06/20 10:03:12;;;;;;;60.97;57.43;;;26.00;36.50;;;;;;4164846;28;20176;-71
2022/06/20 10:05:49;;;;;;;127.57;120.40;;;26.10;36.00;;;;;;4163144;28;20180;-71
2022/06/20 10:08:10;;;;;;;22.80;21.00;;;25.90;35.10;;;;;;4143154;28;20197;-71
2022/06/20 10:10:17;;;;;;;89.73;84.70;;;26.00;36.00;;;;;;4165220;28;20189;-71
2022/06/20 10:12:26;;;;;;;183.67;172.77;;;26.40;35.30;;;;;;4164785;28;20177;-70
2022/06/20 10:14:42;;;;;;;56.17;52.73;;;26.60;34.90;;;;;;4164934;28;20169;-70
2022/06/20 10:17:01;;;;;;;54.67;51.37;;;26.60;35.30;;;;;;4164402;28;20635;-70
2022/06/20 10:19:38;;;;;;;30.47;28.57;;;26.60;34.40;;;;;;4164446;28;20173;-70
2022/06/20 10:22:00;;;;;;;9.53;8.70;;;26.70;34.60;;;;;;4157073;28;20579;-70
2022/06/20 10:24:27;;;;;;;101.87;95.80;;;26.70;35.10;;;;;;4164619;28;20185;-70
2022/06/20 10:26:39;;;;;;;87.70;82.47;;;26.60;34.40;;;;;;4164069;28;20707;-71
2022/06/20 10:28:47;;;;;;;35.20;32.90;;;26.90;35.10;;;;;;4164540;28;20188;-70
2022/06/20 10:30:53;;;;;;;44.43;41.50;;;26.90;34.80;;;;;;4164754;28;20184;-70
2022/06/20 10:32:59;;;;;;;158.67;149.63;;;27.20;34.40;;;;;;4164655;28;20204;-70
2022/06/20 10:35:26;;;;;;;93.17;87.60;;;27.00;33.90;;;;;;4164357;28;20258;-70
2022/06/20 10:38:02;;;;;;;70.10;66.10;;;26.90;34.80;;;;;;4164449;28;20213;-70
2022/06/20 10:40:26;;;;;;;11.90;11.13;;;27.10;33.80;;;;;;4164395;28;20231;-70
2022/06/20 10:42:42;;;;;;;168.07;158.00;;;27.60;33.80;;;;;;4164507;28;20604;-70
2022/06/20 10:45:20;;;;;;;12.83;11.83;;;28.50;31.00;;;;;;4164567;28;20229;-71
2022/06/20 10:47:56;;;;;;;98.27;92.07;;;28.50;31.60;;;;;;4163132;28;20380;-70
2022/06/20 10:50:24;;;;;;;82.10;77.23;;;28.90;31.20;;;;;;4164441;28;20239;-70
2022/06/20 10:52:33;;;;;;;69.30;65.03;;;28.60;30.80;;;;;;4166612;28;20185;-70
2022/06/20 10:55:03;;;;;;;15.43;14.27;;;28.80;31.90;;;;;;4164288;28;20180;-70
2022/06/20 10:57:44;;;;;;;55.33;51.88;;;29.70;31.40;;;;;;4163729;28;20205;-71
2022/06/20 11:00:06;;;;;;;65.05;61.10;;;28.50;33.10;;;;;;4148013;28;20209;-70
2022/06/20 11:02:36;;;;;;;84.78;79.82;;;29.00;33.00;;;;;;4163955;28;20595;-70
2022/06/20 11:04:51;;;;;;;122.68;115.45;;;29.30;31.60;;;;;;4164171;28;20226;-70
2022/06/20 11:07:10;;;;;;;47.55;44.45;;;29.80;31.20;;;;;;4163251;28;20208;-70
2022/06/20 11:09:39;;;;;;;95.75;89.55;;;30.40;30.00;;;;;;4164124;28;20185;-70
2022/06/20 11:12:00;;;;;;;13.95;11.07;;;29.60;30.70;;;;;;4164142;28;20358;-70
2022/06/20 11:14:23;;;;;;;22.23;20.73;;;30.10;30.30;;;;;;4162691;28;20196;-70
2022/06/20 11:16:33;;;;;;;27.27;25.30;;;30.50;30.00;;;;;;4163260;28;20757;-70